X  Close Metar Aviation Weather Data     EHAM Amsterdam Airport Schiphol
Temperature
20°C Temperature
13°C Dewpoint
64% Humidity



Wind
11 KM/H
7 MPH
3 M/S
6 KTS



70°
ENE
Current Conditions

Mostly Scattered Clouds Mostly Scattered Clouds
Pressure 1011.92 (hPa) - 29.88 (inHg)
Visibility 6.2 (mile) - 10 (km)
Airport
Airport-code EHAM

Location: Amsterdam Airport Schiphol
Distance: 14 (km)

Metar:
EHAM 041455Z 07006KT 9999 SCT040CB 20/13 Q1012 TEMPO 6000 -SHRA

Time: 04-08-2021 16:55 CEST